createdAt,value
2023-02-06T00:03:00.726Z,77.06
2023-02-06T00:07:03.409Z,77.99
2023-02-06T00:11:07.544Z,78.68
2023-02-06T00:15:08.650Z,79.50
2023-02-06T00:19:08.856Z,79.54
2023-02-06T00:23:11.503Z,78.42
2023-02-06T00:27:11.671Z,77.86
2023-02-06T00:31:12.906Z,78.60
2023-02-06T00:35:13.057Z,77.86
2023-02-06T00:39:16.876Z,78.38
2023-02-06T00:43:17.411Z,78.34
2023-02-06T00:47:17.797Z,77.61
2023-02-06T00:51:19.161Z,78.00
2023-02-06T00:55:22.132Z,77.61
2023-02-06T00:59:22.266Z,77.13
2023-02-06T01:03:22.323Z,76.95
2023-02-06T01:07:22.434Z,76.38
2023-02-06T01:11:28.599Z,76.34
2023-02-06T01:15:28.988Z,76.34
2023-02-06T01:19:29.689Z,78.01
2023-02-06T01:23:29.837Z,77.43
2023-02-06T01:27:33.132Z,76.24
2023-02-06T01:31:34.836Z,75.46
2023-02-06T01:35:37.630Z,76.52
2023-02-06T01:39:37.973Z,76.81
2023-02-06T01:43:45.526Z,76.33
2023-02-06T01:47:45.611Z,77.23
2023-02-06T01:51:46.675Z,77.22
2023-02-06T01:55:50.443Z,77.03
2023-02-06T02:00:01.896Z,77.87
2023-02-06T02:04:20.733Z,78.30
2023-02-06T02:08:29.373Z,78.76
2023-02-06T02:12:29.686Z,78.43
2023-02-06T02:16:50.227Z,78.27
2023-02-06T02:21:39.219Z,77.91
2023-02-06T02:26:24.675Z,76.95
2023-02-06T02:31:03.531Z,76.67
2023-02-06T02:35:25.371Z,76.36
2023-02-06T02:39:38.242Z,76.54
2023-02-06T02:43:45.647Z,76.38
2023-02-06T02:48:00.889Z,76.63
2023-02-06T02:52:05.310Z,77.31
2023-02-06T02:56:12.761Z,77.36
2023-02-06T03:00:16.069Z,76.71
2023-02-06T03:04:25.723Z,77.05
2023-02-06T03:08:41.961Z,77.82
2023-02-06T03:12:48.805Z,76.63
2023-02-06T03:16:55.508Z,76.06
2023-02-06T03:20:55.977Z,76.37
2023-02-06T03:25:00.795Z,76.07
2023-02-06T03:29:06.930Z,77.00
2023-02-06T03:33:11.070Z,77.21
2023-02-06T03:37:12.164Z,77.81
2023-02-06T03:41:18.004Z,77.54
2023-02-06T03:45:25.515Z,77.46
2023-02-06T03:49:32.167Z,76.42
2023-02-06T03:53:36.181Z,77.75
2023-02-06T03:57:40.871Z,77.32
2023-02-06T04:01:45.131Z,77.06
2023-02-06T04:05:45.347Z,76.42
2023-02-06T04:09:45.409Z,76.54
2023-02-06T04:13:48.026Z,76.20
2023-02-06T04:17:59.534Z,76.11
2023-02-06T04:22:00.921Z,76.77
2023-02-06T04:26:01.212Z,77.49
2023-02-06T04:30:04.100Z,76.97
2023-02-06T04:34:04.210Z,78.77
2023-02-06T04:38:04.341Z,78.11
2023-02-06T04:42:04.657Z,77.51
2023-02-06T04:46:07.720Z,77.31
2023-02-06T04:50:10.581Z,77.11
2023-02-06T04:54:14.569Z,77.80
2023-02-06T04:58:15.040Z,77.28
2023-02-06T05:02:18.054Z,77.93
2023-02-06T05:06:19.123Z,78.94
2023-02-06T05:10:19.513Z,79.08
2023-02-06T05:14:19.685Z,79.49
2023-02-06T05:18:23.140Z,79.30
2023-02-06T05:22:23.215Z,80.06
2023-02-06T05:26:23.733Z,80.06
2023-02-06T05:30:24.161Z,80.79
2023-02-06T05:34:27.159Z,80.10
2023-02-06T05:38:27.404Z,80.16
2023-02-06T05:42:28.061Z,81.30
2023-02-06T05:46:28.458Z,80.93
2023-02-06T05:50:31.237Z,80.28
2023-02-06T05:54:32.492Z,80.28
2023-02-06T05:58:32.632Z,80.50
2023-02-06T06:02:32.691Z,80.36
2023-02-06T06:06:35.487Z,80.97
2023-02-06T06:10:35.622Z,81.52
2023-02-06T06:14:35.682Z,81.81
2023-02-06T06:18:35.920Z,82.00
2023-02-06T06:22:39.659Z,82.66
2023-02-06T06:26:39.749Z,81.49
2023-02-06T06:30:40.282Z,82.30
2023-02-06T06:34:40.366Z,82.06
2023-02-06T06:38:43.087Z,84.10
2023-02-06T06:42:43.346Z,83.11
2023-02-06T06:46:43.540Z,83.65
2023-02-06T06:50:43.756Z,83.52
2023-02-06T06:54:46.714Z,83.94
2023-02-06T06:58:46.998Z,83.84
2023-02-06T07:02:47.331Z,83.80
2023-02-06T07:06:47.468Z,81.48
2023-02-06T07:10:50.836Z,80.21
2023-02-06T07:14:51.078Z,81.24
2023-02-06T07:18:51.200Z,81.48
2023-02-06T07:22:51.502Z,81.11
2023-02-06T07:26:54.112Z,81.76
2023-02-06T07:30:54.173Z,82.17
2023-02-06T07:34:54.332Z,81.92
2023-02-06T07:38:54.389Z,82.50
2023-02-06T07:42:57.026Z,82.42
2023-02-06T07:47:00.486Z,82.89
2023-02-06T07:51:06.225Z,83.50
2023-02-06T07:55:06.833Z,83.01
2023-02-06T07:59:10.288Z,83.51
2023-02-06T08:03:10.917Z,83.92
2023-02-06T08:07:15.075Z,83.13
2023-02-06T08:11:18.704Z,82.85
2023-02-06T08:15:21.656Z,83.04
2023-02-06T08:19:21.894Z,82.68
2023-02-06T08:23:22.278Z,81.66
2023-02-06T08:27:22.455Z,81.68
2023-02-06T08:31:28.936Z,81.60
2023-02-06T08:35:29.556Z,81.56
2023-02-06T08:39:30.749Z,77.88
2023-02-06T08:43:33.013Z,78.45
2023-02-06T08:47:35.869Z,77.40
2023-02-06T08:51:37.937Z,78.23
2023-02-06T08:55:38.608Z,79.81
2023-02-06T08:59:39.051Z,80.26
2023-02-06T09:03:41.877Z,76.19
2023-02-06T09:07:41.976Z,71.53
2023-02-06T09:11:42.560Z,70.37
2023-02-06T09:15:44.155Z,69.88
2023-02-06T09:19:46.933Z,69.40
2023-02-06T09:23:50.144Z,65.97
2023-02-06T09:27:53.163Z,68.58
2023-02-06T09:31:53.292Z,68.82
2023-02-06T09:36:05.444Z,62.60
2023-02-06T09:40:05.606Z,66.79
2023-02-06T09:44:15.310Z,63.51
2023-02-06T09:48:23.317Z,63.11
2023-02-06T09:53:01.857Z,61.95
2023-02-06T09:57:10.844Z,61.27
2023-02-06T10:01:22.187Z,59.73
2023-02-06T10:05:36.809Z,58.67
2023-02-06T10:09:45.726Z,58.45
2023-02-06T10:13:54.542Z,57.50
2023-02-06T10:18:03.082Z,57.51
2023-02-06T10:22:09.976Z,57.05
2023-02-06T10:26:18.660Z,57.04
2023-02-06T10:30:22.668Z,57.24
2023-02-06T10:35:06.387Z,56.57
2023-02-06T10:39:27.846Z,55.78
2023-02-06T10:43:43.708Z,56.23
2023-02-06T10:47:55.186Z,56.93
2023-02-06T10:52:02.830Z,56.57
2023-02-06T10:56:07.180Z,56.57
2023-02-06T11:00:20.223Z,57.06
2023-02-06T11:04:27.965Z,55.70
2023-02-06T11:08:33.870Z,55.98
2023-02-06T11:12:39.017Z,57.63
2023-02-06T11:16:43.241Z,57.77
2023-02-06T11:20:47.425Z,58.20
2023-02-06T11:25:04.114Z,58.25
2023-02-06T11:29:18.816Z,57.11
2023-02-06T11:33:31.236Z,57.70
2023-02-06T11:37:38.481Z,56.67
2023-02-06T11:41:38.617Z,57.47
2023-02-06T11:45:39.621Z,57.86
2023-02-06T11:49:42.737Z,57.29
2023-02-06T11:53:58.549Z,58.13
2023-02-06T11:58:22.485Z,58.94
2023-02-06T12:02:32.042Z,58.19
2023-02-06T12:06:39.096Z,59.70
2023-02-06T12:10:49.164Z,59.91
2023-02-06T12:14:55.835Z,60.01
2023-02-06T12:19:00.725Z,59.86
2023-02-06T12:23:14.722Z,60.97
2023-02-06T12:27:22.661Z,61.63
2023-02-06T12:31:32.234Z,61.43
2023-02-06T12:35:43.878Z,60.61
2023-02-06T12:39:47.405Z,61.07
2023-02-06T12:43:54.733Z,61.22
2023-02-06T12:48:04.447Z,61.59
2023-02-06T12:52:17.452Z,61.12
2023-02-06T12:56:31.428Z,61.36
2023-02-06T13:01:08.289Z,61.66
2023-02-06T13:05:25.221Z,61.48
2023-02-06T13:09:32.462Z,60.92
2023-02-06T13:13:39.310Z,61.18
2023-02-06T13:17:44.880Z,61.11
2023-02-06T13:21:53.873Z,61.19
2023-02-06T13:25:56.973Z,61.35
2023-02-06T13:30:18.557Z,61.90
2023-02-06T13:34:21.743Z,62.24
2023-02-06T13:38:42.379Z,62.54
2023-02-06T13:42:51.993Z,62.83
2023-02-06T13:47:31.287Z,62.90
2023-02-06T13:51:52.567Z,62.95
2023-02-06T13:56:22.000Z,63.32
2023-02-06T14:00:28.995Z,63.81
2023-02-06T14:04:34.549Z,63.77
2023-02-06T14:08:51.516Z,63.99
2023-02-06T14:13:10.664Z,65.02
2023-02-06T14:17:28.280Z,64.39
2023-02-06T14:21:49.593Z,64.97
2023-02-06T14:26:27.607Z,65.90
2023-02-06T14:30:40.380Z,65.35
2023-02-06T14:35:01.555Z,65.97
2023-02-06T14:39:48.814Z,66.77
2023-02-06T14:43:53.599Z,67.43
2023-02-06T14:47:56.046Z,67.26
2023-02-06T14:51:56.406Z,67.71
2023-02-06T14:56:12.387Z,69.49
2023-02-06T15:00:22.487Z,70.42
2023-02-06T15:04:26.140Z,71.04
2023-02-06T15:08:26.190Z,71.19
2023-02-06T15:12:32.195Z,72.07
2023-02-06T15:16:33.123Z,72.32
2023-02-06T15:20:40.471Z,72.78
2023-02-06T15:25:13.102Z,73.59
2023-02-06T15:29:23.081Z,74.24
2023-02-06T15:38:42.834Z,75.17
2023-02-06T15:42:48.346Z,75.09
2023-02-06T15:46:55.730Z,75.97
2023-02-06T15:51:05.765Z,76.75
2023-02-06T15:55:08.807Z,77.41
2023-02-06T15:59:21.934Z,77.45
2023-02-06T16:03:32.681Z,76.60
2023-02-06T16:07:37.456Z,77.21
2023-02-06T16:11:52.455Z,77.90
2023-02-06T16:16:22.926Z,77.98
2023-02-06T16:20:40.993Z,77.95
2023-02-06T16:24:41.204Z,77.80
2023-02-06T16:28:52.555Z,77.92
2023-02-06T16:32:55.562Z,78.20
2023-02-06T16:37:01.210Z,78.25
2023-02-06T16:41:02.579Z,78.63
2023-02-06T16:45:12.099Z,78.54
2023-02-06T16:49:16.450Z,78.37
2023-02-06T16:53:24.056Z,77.85
2023-02-06T16:57:30.897Z,78.71
2023-02-06T17:01:33.182Z,79.45
2023-02-06T17:05:36.190Z,79.20
2023-02-06T17:09:39.123Z,79.70
2023-02-06T17:13:39.355Z,80.35
2023-02-06T17:17:39.754Z,79.17
2023-02-06T17:21:40.136Z,78.39
2023-02-06T17:25:46.347Z,78.02
2023-02-06T17:29:47.766Z,77.35
2023-02-06T17:33:48.185Z,76.78
2023-02-06T17:37:49.335Z,76.68
2023-02-06T17:41:53.180Z,76.61
2023-02-06T17:45:53.258Z,76.59
2023-02-06T17:49:53.556Z,77.10
2023-02-06T17:53:54.716Z,76.77
2023-02-06T17:57:59.103Z,77.58
2023-02-06T18:02:00.136Z,77.34
2023-02-06T18:06:02.804Z,78.06
2023-02-06T18:10:11.128Z,77.62
2023-02-06T18:14:13.876Z,77.71
2023-02-06T18:18:17.959Z,77.12
2023-02-06T18:22:27.106Z,76.25
2023-02-06T18:26:30.797Z,76.68
2023-02-06T18:30:36.833Z,77.25
2023-02-06T18:34:37.642Z,76.68
2023-02-06T18:38:38.264Z,77.32
2023-02-06T18:42:50.795Z,76.39
2023-02-06T18:46:53.909Z,75.68
2023-02-06T18:50:56.972Z,74.90
2023-02-06T18:54:58.825Z,74.21
2023-02-06T18:58:59.256Z,73.77
2023-02-06T19:03:04.679Z,73.57
2023-02-06T19:07:04.862Z,73.25
2023-02-06T19:11:05.222Z,74.18
2023-02-06T19:15:05.527Z,74.18
2023-02-06T19:19:09.753Z,74.51
2023-02-06T19:23:10.253Z,74.56
2023-02-06T19:27:10.575Z,74.99
2023-02-06T19:31:13.143Z,76.33
2023-02-06T19:35:17.325Z,77.05
2023-02-06T19:39:17.737Z,77.55
2023-02-06T19:43:19.119Z,78.15
2023-02-06T19:47:19.289Z,78.84
2023-02-06T19:51:25.966Z,78.32
2023-02-06T19:55:26.102Z,78.58
2023-02-06T19:59:29.481Z,78.72
2023-02-06T20:03:29.754Z,78.50
2023-02-06T20:07:33.157Z,78.40
2023-02-06T20:11:35.607Z,78.79
2023-02-06T20:15:41.259Z,78.71
2023-02-06T20:19:41.587Z,78.39
2023-02-06T20:23:44.279Z,78.75
2023-02-06T20:27:44.413Z,78.61
2023-02-06T20:31:45.083Z,78.78
2023-02-06T20:35:46.105Z,78.55
2023-02-06T20:39:49.556Z,78.65
2023-02-06T20:43:51.150Z,79.03
2023-02-06T20:47:51.348Z,79.57
2023-02-06T20:51:52.809Z,81.58
2023-02-06T20:55:55.710Z,79.97
2023-02-06T20:59:56.188Z,81.11
2023-02-06T21:04:02.657Z,82.29
2023-02-06T21:08:04.573Z,82.22
2023-02-06T21:12:08.069Z,80.82
2023-02-06T21:16:10.865Z,81.02
2023-02-06T21:20:14.038Z,81.59
2023-02-06T21:24:14.662Z,81.45
2023-02-06T21:28:19.304Z,80.75
2023-02-06T21:32:19.519Z,79.74
2023-02-06T21:36:21.322Z,79.70
2023-02-06T21:40:21.641Z,79.40
2023-02-06T21:44:26.601Z,79.50
2023-02-06T21:48:26.632Z,78.96
2023-02-06T21:52:26.821Z,78.79
2023-02-06T21:56:30.336Z,79.22
2023-02-06T22:00:32.991Z,80.91
2023-02-06T22:04:33.430Z,80.89
2023-02-06T22:08:34.469Z,80.29
2023-02-06T22:12:34.792Z,78.67
2023-02-06T22:16:37.581Z,78.60
2023-02-06T22:20:37.615Z,78.94
2023-02-06T22:24:37.673Z,79.53
2023-02-06T22:28:38.424Z,79.07
2023-02-06T22:32:42.943Z,79.08
2023-02-06T22:36:44.632Z,79.64
2023-02-06T22:40:44.676Z,79.82
2023-02-06T22:44:44.750Z,79.54
2023-02-06T22:48:47.417Z,79.11
2023-02-06T22:52:59.952Z,78.62
2023-02-06T22:57:00.239Z,78.50
2023-02-06T23:01:05.494Z,77.84
2023-02-06T23:05:10.583Z,76.77
2023-02-06T23:09:15.330Z,76.84
2023-02-06T23:13:15.501Z,77.67
2023-02-06T23:17:15.588Z,77.87
2023-02-06T23:21:20.921Z,78.83
2023-02-06T23:25:21.179Z,78.63
2023-02-06T23:29:25.531Z,78.72
2023-02-06T23:33:25.759Z,78.47
2023-02-06T23:37:28.830Z,78.08
2023-02-06T23:41:30.961Z,78.64
2023-02-06T23:45:31.412Z,78.67
2023-02-06T23:49:31.689Z,77.97
2023-02-06T23:53:34.787Z,78.86
2023-02-06T23:57:37.886Z,78.78
